sensor_id;sensor_type;location;lat;lon;timestamp;pressure;altitude;pressure_sealevel;temperature;humidity
23170;BME280;11753;43.144;24.714;2022-10-16T00:00:04;100391.78;;;7.97;99.35
23170;BME280;11753;43.144;24.714;2022-10-16T00:01:06;100396.06;;;7.98;99.50
23170;BME280;11753;43.144;24.714;2022-10-16T00:02:07;100397.03;;;7.97;99.23
23170;BME280;11753;43.144;24.714;2022-10-16T00:03:08;100404.53;;;8.02;99.38
23170;BME280;11753;43.144;24.714;2022-10-16T00:04:09;100398.47;;;8.01;99.21
23170;BME280;11753;43.144;24.714;2022-10-16T00:05:10;100401.78;;;8.03;99.24
23170;BME280;11753;43.144;24.714;2022-10-16T00:06:11;100401.78;;;8.03;98.89
23170;BME280;11753;43.144;24.714;2022-10-16T00:07:13;100403.09;;;7.97;99.01
23170;BME280;11753;43.144;24.714;2022-10-16T00:08:14;100404.53;;;8.02;99.22
23170;BME280;11753;43.144;24.714;2022-10-16T00:09:15;100404.63;;;8.00;99.27
23170;BME280;11753;43.144;24.714;2022-10-16T00:10:16;100406.09;;;8.04;99.31
23170;BME280;11753;43.144;24.714;2022-10-16T00:11:23;100404.91;;;8.08;99.10
23170;BME280;11753;43.144;24.714;2022-10-16T00:12:25;100412.66;;;8.10;99.18
23170;BME280;11753;43.144;24.714;2022-10-16T00:13:26;100414.06;;;8.14;99.01
23170;BME280;11753;43.144;24.714;2022-10-16T00:14:27;100411.34;;;8.15;98.91
23170;BME280;11753;43.144;24.714;2022-10-16T00:15:28;100415.03;;;8.13;98.97
23170;BME280;11753;43.144;24.714;2022-10-16T00:16:29;100415.41;;;8.08;98.97
23170;BME280;11753;43.144;24.714;2022-10-16T00:17:30;100411.81;;;8.09;99.04
23170;BME280;11753;43.144;24.714;2022-10-16T00:18:31;100418.47;;;8.13;98.90
23170;BME280;11753;43.144;24.714;2022-10-16T00:19:32;100418.72;;;8.10;99.21
23170;BME280;11753;43.144;24.714;2022-10-16T00:20:34;100410.63;;;8.02;99.17
23170;BME280;11753;43.144;24.714;2022-10-16T00:21:35;100413.81;;;8.06;99.32
23170;BME280;11753;43.144;24.714;2022-10-16T00:22:36;100418.59;;;8.00;99.18
23170;BME280;11753;43.144;24.714;2022-10-16T00:23:37;100418.22;;;8.05;99.03
23170;BME280;11753;43.144;24.714;2022-10-16T00:24:38;100422.19;;;8.11;98.74
23170;BME280;11753;43.144;24.714;2022-10-16T00:25:39;100418.94;;;8.07;98.59
23170;BME280;11753;43.144;24.714;2022-10-16T00:26:40;100421.34;;;8.10;98.38
23170;BME280;11753;43.144;24.714;2022-10-16T00:27:41;100420.16;;;8.03;98.29
23170;BME280;11753;43.144;24.714;2022-10-16T00:28:46;100419.19;;;8.04;98.28
23170;BME280;11753;43.144;24.714;2022-10-16T00:29:51;100417.53;;;8.03;98.45
23170;BME280;11753;43.144;24.714;2022-10-16T00:30:52;100426.34;;;8.02;98.05
23170;BME280;11753;43.144;24.714;2022-10-16T00:31:53;100415.03;;;8.02;98.14
23170;BME280;11753;43.144;24.714;2022-10-16T00:32:55;100421.31;;;7.99;98.08
23170;BME280;11753;43.144;24.714;2022-10-16T00:33:56;100417.63;;;7.90;98.33
23170;BME280;11753;43.144;24.714;2022-10-16T00:34:57;100423.47;;;7.94;98.25
23170;BME280;11753;43.144;24.714;2022-10-16T00:35:59;100431.22;;;7.95;98.42
23170;BME280;11753;43.144;24.714;2022-10-16T00:37:00;100429.56;;;7.94;98.09
23170;BME280;11753;43.144;24.714;2022-10-16T00:38:01;100434.19;;;7.91;98.05
23170;BME280;11753;43.144;24.714;2022-10-16T00:39:02;100425.13;;;7.84;98.09
23170;BME280;11753;43.144;24.714;2022-10-16T00:40:04;100428.34;;;7.87;98.23
23170;BME280;11753;43.144;24.714;2022-10-16T00:41:07;100427.91;;;7.93;97.83
23170;BME280;11753;43.144;24.714;2022-10-16T00:42:15;100427.28;;;7.90;97.60
23170;BME280;11753;43.144;24.714;2022-10-16T00:44:55;100430.84;;;7.89;96.72
23170;BME280;11753;43.144;24.714;2022-10-16T00:45:57;100429.41;;;7.85;96.77
23170;BME280;11753;43.144;24.714;2022-10-16T00:46:58;100426.06;;;7.71;96.71
23170;BME280;11753;43.144;24.714;2022-10-16T00:47:59;100421.75;;;7.70;97.08
23170;BME280;11753;43.144;24.714;2022-10-16T00:49:09;100419.13;;;7.70;97.02
23170;BME280;11753;43.144;24.714;2022-10-16T00:50:13;100429.59;;;7.59;97.86
23170;BME280;11753;43.144;24.714;2022-10-16T00:51:19;100429.34;;;7.62;97.52
23170;BME280;11753;43.144;24.714;2022-10-16T00:52:23;100428.75;;;7.59;97.91
23170;BME280;11753;43.144;24.714;2022-10-16T00:53:25;100426.00;;;7.60;98.07
23170;BME280;11753;43.144;24.714;2022-10-16T00:54:28;100435.81;;;7.69;97.89
23170;BME280;11753;43.144;24.714;2022-10-16T00:55:30;100426.97;;;7.70;97.70
23170;BME280;11753;43.144;24.714;2022-10-16T00:56:32;100434.13;;;7.68;97.81
23170;BME280;11753;43.144;24.714;2022-10-16T00:57:33;100434.59;;;7.62;98.10
23170;BME280;11753;43.144;24.714;2022-10-16T00:58:34;100429.59;;;7.59;98.12
23170;BME280;11753;43.144;24.714;2022-10-16T00:59:38;100437.44;;;7.59;98.41
23170;BME280;11753;43.144;24.714;2022-10-16T01:00:39;100432.72;;;7.64;98.38
23170;BME280;11753;43.144;24.714;2022-10-16T01:01:40;100430.44;;;7.60;98.49
23170;BME280;11753;43.144;24.714;2022-10-16T01:02:41;100435.03;;;7.56;98.54
23170;BME280;11753;43.144;24.714;2022-10-16T01:03:41;100433.38;;;7.55;98.85
23170;BME280;11753;43.144;24.714;2022-10-16T01:04:45;100433.38;;;7.55;99.08
23170;BME280;11753;43.144;24.714;2022-10-16T01:05:53;100427.31;;;7.55;99.20
23170;BME280;11753;43.144;24.714;2022-10-16T01:07:02;100427.69;;;7.61;99.17
23170;BME280;11753;43.144;24.714;2022-10-16T01:08:18;100435.22;;;7.66;98.86
23170;BME280;11753;43.144;24.714;2022-10-16T01:13:52;100430.50;;;7.47;99.03
23170;BME280;11753;43.144;24.714;2022-10-16T01:14:59;100429.41;;;7.38;99.05
23170;BME280;11753;43.144;24.714;2022-10-16T01:17:41;100433.75;;;7.27;99.93
23170;BME280;11753;43.144;24.714;2022-10-16T01:18:46;100433.91;;;7.36;99.65
23170;BME280;11753;43.144;24.714;2022-10-16T01:21:24;100438.97;;;7.27;100.00
23170;BME280;11753;43.144;24.714;2022-10-16T01:22:37;100434.50;;;7.29;100.00
23170;BME280;11753;43.144;24.714;2022-10-16T01:25:11;100439.81;;;7.27;100.00
23170;BME280;11753;43.144;24.714;2022-10-16T01:26:43;100437.09;;;7.29;100.00
23170;BME280;11753;43.144;24.714;2022-10-16T01:27:49;100443.19;;;7.29;100.00
23170;BME280;11753;43.144;24.714;2022-10-16T01:29:28;100432.91;;;7.26;100.00
23170;BME280;11753;43.144;24.714;2022-10-16T01:30:32;100446.97;;;7.25;100.00
23170;BME280;11753;43.144;24.714;2022-10-16T01:31:37;100445.78;;;7.29;100.00
23170;BME280;11753;43.144;24.714;2022-10-16T01:32:44;100448.41;;;7.29;100.00
23170;BME280;11753;43.144;24.714;2022-10-16T01:34:53;100441.97;;;7.22;100.00
23170;BME280;11753;43.144;24.714;2022-10-16T01:36:28;100440.44;;;7.31;100.00
23170;BME280;11753;43.144;24.714;2022-10-16T01:37:39;100445.00;;;7.16;100.00
23170;BME280;11753;43.144;24.714;2022-10-16T01:38:43;100443.13;;;7.18;100.00
23170;BME280;11753;43.144;24.714;2022-10-16T01:39:47;100441.13;;;7.22;100.00
23170;BME280;11753;43.144;24.714;2022-10-16T01:40:56;100439.91;;;7.14;100.00
23170;BME280;11753;43.144;24.714;2022-10-16T01:42:12;100435.94;;;7.09;100.00
23170;BME280;11753;43.144;24.714;2022-10-16T01:43:18;100436.97;;;7.06;100.00
23170;BME280;11753;43.144;24.714;2022-10-16T01:44:31;100438.66;;;7.07;100.00
23170;BME280;11753;43.144;24.714;2022-10-16T01:45:34;100442.00;;;7.09;100.00
23170;BME280;11753;43.144;24.714;2022-10-16T01:46:39;100443.78;;;7.09;100.00
23170;BME280;11753;43.144;24.714;2022-10-16T01:47:41;100434.88;;;7.11;100.00
23170;BME280;11753;43.144;24.714;2022-10-16T01:48:45;100432.97;;;7.13;100.00
23170;BME280;11753;43.144;24.714;2022-10-16T01:49:46;100435.09;;;7.08;100.00
23170;BME280;11753;43.144;24.714;2022-10-16T01:51:06;100440.34;;;7.08;100.00
23170;BME280;11753;43.144;24.714;2022-10-16T01:52:13;100444.94;;;7.05;100.00
23170;BME280;11753;43.144;24.714;2022-10-16T01:53:15;100444.81;;;7.06;100.00
23170;BME280;11753;43.144;24.714;2022-10-16T01:54:19;100449.34;;;7.04;100.00
23170;BME280;11753;43.144;24.714;2022-10-16T01:55:31;100450.13;;;7.17;100.00
23170;BME280;11753;43.144;24.714;2022-10-16T01:56:34;100441.59;;;7.03;100.00
23170;BME280;11753;43.144;24.714;2022-10-16T01:57:38;100448.91;;;7.10;100.00
23170;BME280;11753;43.144;24.714;2022-10-16T01:58:48;100446.16;;;7.12;100.00
23170;BME280;11753;43.144;24.714;2022-10-16T01:59:54;100448.41;;;7.05;100.00
23170;BME280;11753;43.144;24.714;2022-10-16T02:00:57;100461.28;;;7.08;100.00
23170;BME280;11753;43.144;24.714;2022-10-16T02:02:05;100451.53;;;7.10;100.00
23170;BME280;11753;43.144;24.714;2022-10-16T02:03:08;100454.38;;;7.07;100.00
23170;BME280;11753;43.144;24.714;2022-10-16T02:04:33;100452.34;;;7.11;100.00
23170;BME280;11753;43.144;24.714;2022-10-16T02:05:41;100451.28;;;7.13;100.00
23170;BME280;11753;43.144;24.714;2022-10-16T02:06:45;100456.75;;;7.10;100.00
23170;BME280;11753;43.144;24.714;2022-10-16T02:07:47;100451.66;;;7.09;100.00
23170;BME280;11753;43.144;24.714;2022-10-16T02:08:49;100453.03;;;7.02;100.00
23170;BME280;11753;43.144;24.714;2022-10-16T02:09:49;100455.41;;;7.05;100.00
23170;BME280;11753;43.144;24.714;2022-10-16T02:10:50;100452.69;;;7.06;100.00
23170;BME280;11753;43.144;24.714;2022-10-16T02:11:54;100456.03;;;7.08;100.00
23170;BME280;11753;43.144;24.714;2022-10-16T02:13:53;100450.56;;;7.11;100.00
23170;BME280;11753;43.144;24.714;2022-10-16T02:14:37;100451.25;;;7.02;100.00
23170;BME280;11753;43.144;24.714;2022-10-16T02:15:39;100451.44;;;6.99;100.00
23170;BME280;11753;43.144;24.714;2022-10-16T02:16:42;100450.00;;;6.95;100.00
23170;BME280;11753;43.144;24.714;2022-10-16T02:17:44;100446.22;;;6.99;100.00
23170;BME280;11753;43.144;24.714;2022-10-16T02:18:45;100448.00;;;6.99;100.00
23170;BME280;11753;43.144;24.714;2022-10-16T02:19:47;100450.63;;;6.99;100.00
23170;BME280;11753;43.144;24.714;2022-10-16T02:20:57;100451.69;;;6.96;100.00
23170;BME280;11753;43.144;24.714;2022-10-16T02:22:06;100458.16;;;7.03;100.00
23170;BME280;11753;43.144;24.714;2022-10-16T02:23:12;100451.00;;;7.05;100.00
23170;BME280;11753;43.144;24.714;2022-10-16T02:25:37;100459.31;;;6.99;100.00
23170;BME280;11753;43.144;24.714;2022-10-16T02:26:43;100459.41;;;6.98;100.00
23170;BME280;11753;43.144;24.714;2022-10-16T02:28:54;100453.88;;;7.02;100.00
23170;BME280;11753;43.144;24.714;2022-10-16T02:30:05;100458.38;;;7.00;100.00
23170;BME280;11753;43.144;24.714;2022-10-16T02:31:11;100455.97;;;6.97;100.00
23170;BME280;11753;43.144;24.714;2022-10-16T02:32:16;100457.44;;;7.01;100.00
23170;BME280;11753;43.144;24.714;2022-10-16T02:33:19;100457.31;;;7.03;100.00
23170;BME280;11753;43.144;24.714;2022-10-16T02:34:23;100460.66;;;7.05;100.00
23170;BME280;11753;43.144;24.714;2022-10-16T02:35:27;100459.63;;;7.07;100.00
23170;BME280;11753;43.144;24.714;2022-10-16T02:36:29;100464.84;;;7.07;100.00
23170;BME280;11753;43.144;24.714;2022-10-16T02:37:31;100464.63;;;7.10;100.00
23170;BME280;11753;43.144;24.714;2022-10-16T02:38:33;100466.00;;;7.03;100.00
23170;BME280;11753;43.144;24.714;2022-10-16T02:39:34;100466.53;;;7.08;100.00
23170;BME280;11753;43.144;24.714;2022-10-16T02:40:35;100467.22;;;7.10;100.00
23170;BME280;11753;43.144;24.714;2022-10-16T02:41:37;100466.28;;;7.11;100.00
23170;BME280;11753;43.144;24.714;2022-10-16T02:42:40;100469.63;;;7.13;100.00
23170;BME280;11753;43.144;24.714;2022-10-16T02:43:41;100466.53;;;7.08;100.00
23170;BME280;11753;43.144;24.714;2022-10-16T02:44:42;100465.34;;;7.12;100.00
23170;BME280;11753;43.144;24.714;2022-10-16T02:45:43;100464.38;;;7.13;99.78
23170;BME280;11753;43.144;24.714;2022-10-16T02:46:47;100467.75;;;7.15;99.69
23170;BME280;11753;43.144;24.714;2022-10-16T02:47:48;100464.50;;;7.12;99.90
23170;BME280;11753;43.144;24.714;2022-10-16T02:48:49;100460.34;;;7.09;99.93
23170;BME280;11753;43.144;24.714;2022-10-16T02:49:50;100462.72;;;7.12;100.00
23170;BME280;11753;43.144;24.714;2022-10-16T02:50:51;100462.72;;;7.12;100.00
23170;BME280;11753;43.144;24.714;2022-10-16T02:51:52;100471.69;;;7.21;99.75
23170;BME280;11753;43.144;24.714;2022-10-16T02:52:53;100474.53;;;7.18;99.61
23170;BME280;11753;43.144;24.714;2022-10-16T02:53:54;100470.25;;;7.17;99.53
23170;BME280;11753;43.144;24.714;2022-10-16T02:54:55;100476.56;;;7.14;99.36
23170;BME280;11753;43.144;24.714;2022-10-16T02:55:56;100467.34;;;7.09;99.53
23170;BME280;11753;43.144;24.714;2022-10-16T02:56:57;100482.00;;;7.11;99.57
23170;BME280;11753;43.144;24.714;2022-10-16T02:57:58;100472.69;;;7.07;99.52
23170;BME280;11753;43.144;24.714;2022-10-16T02:58:59;100480.31;;;7.10;99.44
23170;BME280;11753;43.144;24.714;2022-10-16T03:00:00;100475.94;;;7.11;99.37
23170;BME280;11753;43.144;24.714;2022-10-16T03:01:01;100481.69;;;7.16;99.05
23170;BME280;11753;43.144;24.714;2022-10-16T03:02:02;100484.28;;;7.16;98.76
23170;BME280;11753;43.144;24.714;2022-10-16T03:03:05;100490.38;;;7.16;98.71
23170;BME280;11753;43.144;24.714;2022-10-16T03:04:09;100488.69;;;7.15;98.47
23170;BME280;11753;43.144;24.714;2022-10-16T03:05:10;100485.63;;;7.22;98.16
23170;BME280;11753;43.144;24.714;2022-10-16T03:06:11;100481.31;;;7.21;97.92
23170;BME280;11753;43.144;24.714;2022-10-16T03:07:12;100484.19;;;7.17;98.08
23170;BME280;11753;43.144;24.714;2022-10-16T03:08:13;100483.34;;;7.17;97.99
23170;BME280;11753;43.144;24.714;2022-10-16T03:09:14;100486.69;;;7.19;97.91
23170;BME280;11753;43.144;24.714;2022-10-16T03:10:16;100484.06;;;7.19;97.92
23170;BME280;11753;43.144;24.714;2022-10-16T03:11:16;100484.28;;;7.16;97.87
23170;BME280;11753;43.144;24.714;2022-10-16T03:12:17;100484.78;;;7.21;97.68
23170;BME280;11753;43.144;24.714;2022-10-16T03:13:18;100483.03;;;7.22;97.49
23170;BME280;11753;43.144;24.714;2022-10-16T03:14:21;100488.25;;;7.22;97.52
23170;BME280;11753;43.144;24.714;2022-10-16T03:15:22;100483.03;;;7.22;97.28
23170;BME280;11753;43.144;24.714;2022-10-16T03:16:23;100488.25;;;7.22;97.24
23170;BME280;11753;43.144;24.714;2022-10-16T03:17:24;100488.25;;;7.22;97.35
23170;BME280;11753;43.144;24.714;2022-10-16T03:18:25;100493.69;;;7.18;97.52
23170;BME280;11753;43.144;24.714;2022-10-16T03:19:26;100497.03;;;7.21;97.41
23170;BME280;11753;43.144;24.714;2022-10-16T03:20:27;100496.31;;;7.18;97.39
23170;BME280;11753;43.144;24.714;2022-10-16T03:21:28;100491.09;;;7.18;97.53
23170;BME280;11753;43.144;24.714;2022-10-16T03:22:29;100492.88;;;7.18;97.58
23170;BME280;11753;43.144;24.714;2022-10-16T03:23:30;100497.78;;;7.23;97.46
23170;BME280;11753;43.144;24.714;2022-10-16T03:24:31;100495.16;;;7.23;97.33
23170;BME280;11753;43.144;24.714;2022-10-16T03:25:31;100489.28;;;7.19;97.22
23170;BME280;11753;43.144;24.714;2022-10-16T03:26:32;100494.41;;;7.21;97.23
23170;BME280;11753;43.144;24.714;2022-10-16T03:27:33;100490.13;;;7.20;97.10
23170;BME280;11753;43.144;24.714;2022-10-16T03:28:34;100496.63;;;7.14;97.49
23170;BME280;11753;43.144;24.714;2022-10-16T03:29:35;100493.19;;;7.13;97.52
23170;BME280;11753;43.144;24.714;2022-10-16T03:30:36;100498.78;;;7.09;97.84
23170;BME280;11753;43.144;24.714;2022-10-16T03:31:37;100494.38;;;7.09;98.02
23170;BME280;11753;43.144;24.714;2022-10-16T03:32:38;100486.00;;;7.04;97.71
23170;BME280;11753;43.144;24.714;2022-10-16T03:33:39;100491.25;;;7.04;98.19
23170;BME280;11753;43.144;24.714;2022-10-16T03:34:43;100492.91;;;7.05;98.18
23170;BME280;11753;43.144;24.714;2022-10-16T03:35:51;100494.38;;;7.09;97.96
23170;BME280;11753;43.144;24.714;2022-10-16T03:36:52;100482.00;;;7.11;97.82
23170;BME280;11753;43.144;24.714;2022-10-16T03:37:53;100491.03;;;7.07;98.20
23170;BME280;11753;43.144;24.714;2022-10-16T03:38:53;100490.91;;;7.09;98.17
23170;BME280;11753;43.144;24.714;2022-10-16T03:39:54;100501.50;;;7.07;98.08
23170;BME280;11753;43.144;24.714;2022-10-16T03:40:55;100503.19;;;7.08;98.07
23170;BME280;11753;43.144;24.714;2022-10-16T03:41:56;100489.13;;;7.09;98.34
23170;BME280;11753;43.144;24.714;2022-10-16T03:42:56;100498.13;;;7.05;98.07
23170;BME280;11753;43.144;24.714;2022-10-16T03:43:57;100490.09;;;7.08;98.10
23170;BME280;11753;43.144;24.714;2022-10-16T03:44:57;100494.56;;;7.06;97.85
23170;BME280;11753;43.144;24.714;2022-10-16T03:45:58;100498.56;;;6.99;98.06
23170;BME280;11753;43.144;24.714;2022-10-16T03:46:59;100488.50;;;7.06;97.86
23170;BME280;11753;43.144;24.714;2022-10-16T03:47:59;100497.09;;;7.08;97.59
23170;BME280;11753;43.144;24.714;2022-10-16T03:49:00;100499.81;;;7.06;97.44
23170;BME280;11753;43.144;24.714;2022-10-16T03:50:00;100501.50;;;7.07;97.15
23170;BME280;11753;43.144;24.714;2022-10-16T03:51:01;100507.38;;;6.98;97.43
23170;BME280;11753;43.144;24.714;2022-10-16T03:52:01;100495.22;;;6.97;97.72
23170;BME280;11753;43.144;24.714;2022-10-16T03:53:03;100504.03;;;6.96;97.92
23170;BME280;11753;43.144;24.714;2022-10-16T03:54:04;100501.94;;;7.01;97.73
23170;BME280;11753;43.144;24.714;2022-10-16T03:55:05;100500.47;;;6.97;97.89
23170;BME280;11753;43.144;24.714;2022-10-16T03:56:06;100504.63;;;7.00;97.79
23170;BME280;11753;43.144;24.714;2022-10-16T03:57:07;100505.66;;;6.86;98.33
23170;BME280;11753;43.144;24.714;2022-10-16T03:58:08;100504.91;;;6.84;98.38
23170;BME280;11753;43.144;24.714;2022-10-16T03:59:09;100512.56;;;6.87;98.38
23170;BME280;11753;43.144;24.714;2022-10-16T04:00:10;100507.09;;;6.90;98.45
23170;BME280;11753;43.144;24.714;2022-10-16T04:01:11;100511.50;;;6.89;98.38
23170;BME280;11753;43.144;24.714;2022-10-16T04:02:13;100513.28;;;6.89;98.28
23170;BME280;11753;43.144;24.714;2022-10-16T04:03:14;100513.88;;;6.93;98.37
23170;BME280;11753;43.144;24.714;2022-10-16T04:04:15;100511.16;;;6.94;98.23
23170;BME280;11753;43.144;24.714;2022-10-16T04:05:15;100510.22;;;6.95;98.30
23170;BME280;11753;43.144;24.714;2022-10-16T04:06:16;100512.72;;;6.97;98.13
23170;BME280;11753;43.144;24.714;2022-10-16T04:07:20;100516.41;;;6.94;98.18
23170;BME280;11753;43.144;24.714;2022-10-16T04:08:21;100512.13;;;6.93;98.19
23170;BME280;11753;43.144;24.714;2022-10-16T04:09:21;100515.56;;;6.94;98.01
23170;BME280;11753;43.144;24.714;2022-10-16T04:10:22;100513.88;;;6.93;98.32
23170;BME280;11753;43.144;24.714;2022-10-16T04:11:23;100508.88;;;6.89;97.90
23170;BME280;11753;43.144;24.714;2022-10-16T04:12:23;100515.88;;;6.89;98.14
23170;BME280;11753;43.144;24.714;2022-10-16T04:13:24;100521.13;;;6.89;98.41
23170;BME280;11753;43.144;24.714;2022-10-16T04:14:25;100516.84;;;6.88;98.46
23170;BME280;11753;43.144;24.714;2022-10-16T04:15:26;100512.44;;;6.88;98.24
23170;BME280;11753;43.144;24.714;2022-10-16T04:16:27;100510.13;;;6.84;98.46
23170;BME280;11753;43.144;24.714;2022-10-16T04:17:27;100517.88;;;6.85;98.56
23170;BME280;11753;43.144;24.714;2022-10-16T04:18:28;100515.66;;;6.92;98.26
23170;BME280;11753;43.144;24.714;2022-10-16T04:19:29;100513.91;;;6.80;98.19
23170;BME280;11753;43.144;24.714;2022-10-16T04:20:30;100517.25;;;6.82;98.13
23170;BME280;11753;43.144;24.714;2022-10-16T04:21:31;100518.41;;;6.78;98.52
23170;BME280;11753;43.144;24.714;2022-10-16T04:22:31;100513.91;;;6.80;98.47
23170;BME280;11753;43.144;24.714;2022-10-16T04:23:34;100515.78;;;6.78;98.60
23170;BME280;11753;43.144;24.714;2022-10-16T04:24:35;100517.03;;;6.85;98.44
23170;BME280;11753;43.144;24.714;2022-10-16T04:25:36;100522.50;;;6.82;98.16
23170;BME280;11753;43.144;24.714;2022-10-16T04:26:37;100514.94;;;6.77;98.50
23170;BME280;11753;43.144;24.714;2022-10-16T04:27:38;100521.38;;;6.73;98.75
23170;BME280;11753;43.144;24.714;2022-10-16T04:28:39;100514.34;;;6.74;98.92
23170;BME280;11753;43.144;24.714;2022-10-16T04:29:40;100516.44;;;6.69;98.91
23170;BME280;11753;43.144;24.714;2022-10-16T04:30:41;100511.00;;;6.72;98.99
23170;BME280;11753;43.144;24.714;2022-10-16T04:31:42;100519.59;;;6.74;98.81
23170;BME280;11753;43.144;24.714;2022-10-16T04:32:43;100525.34;;;6.79;98.64
23170;BME280;11753;43.144;24.714;2022-10-16T04:33:43;100517.69;;;6.76;98.61
23170;BME280;11753;43.144;24.714;2022-10-16T04:34:44;100523.44;;;6.81;98.23
23170;BME280;11753;43.144;24.714;2022-10-16T04:35:44;100526.91;;;6.81;98.37
23170;BME280;11753;43.144;24.714;2022-10-16T04:36:47;100516.84;;;6.75;98.43
23170;BME280;11753;43.144;24.714;2022-10-16T04:37:49;100525.66;;;6.74;98.70
23170;BME280;11753;43.144;24.714;2022-10-16T04:38:50;100521.56;;;6.70;98.66
23170;BME280;11753;43.144;24.714;2022-10-16T04:39:52;100534.03;;;6.67;98.74
23170;BME280;11753;43.144;24.714;2022-10-16T04:40:53;100530.25;;;6.71;98.79
23170;BME280;11753;43.144;24.714;2022-10-16T04:41:54;100536.22;;;6.73;98.58
23170;BME280;11753;43.144;24.714;2022-10-16T04:42:55;100530.88;;;6.61;99.02
23170;BME280;11753;43.144;24.714;2022-10-16T04:43:55;100525.75;;;6.73;98.93
23170;BME280;11753;43.144;24.714;2022-10-16T04:44:56;100529.94;;;6.75;98.15
23170;BME280;11753;43.144;24.714;2022-10-16T04:45:56;100529.22;;;6.73;97.90
23170;BME280;11753;43.144;24.714;2022-10-16T04:46:57;100532.13;;;6.69;98.13
23170;BME280;11753;43.144;24.714;2022-10-16T04:47:58;100538.00;;;6.59;98.37
23170;BME280;11753;43.144;24.714;2022-10-16T04:48:59;100537.59;;;6.66;98.39
23170;BME280;11753;43.144;24.714;2022-10-16T04:50:00;100534.22;;;6.63;98.34
23170;BME280;11753;43.144;24.714;2022-10-16T04:51:02;100534.34;;;6.62;98.47
23170;BME280;11753;43.144;24.714;2022-10-16T04:52:03;100532.66;;;6.61;98.68
23170;BME280;11753;43.144;24.714;2022-10-16T04:53:05;100536.13;;;6.61;98.75
23170;BME280;11753;43.144;24.714;2022-10-16T04:54:05;100529.00;;;6.63;98.72
23170;BME280;11753;43.144;24.714;2022-10-16T04:55:06;100529.94;;;6.62;98.82
23170;BME280;11753;43.144;24.714;2022-10-16T04:56:07;100534.44;;;6.60;98.32
23170;BME280;11753;43.144;24.714;2022-10-16T04:57:08;100526.50;;;6.62;98.20
23170;BME280;11753;43.144;24.714;2022-10-16T04:58:09;100543.44;;;6.56;98.55
23170;BME280;11753;43.144;24.714;2022-10-16T04:59:09;100532.25;;;6.67;98.21
23170;BME280;11753;43.144;24.714;2022-10-16T05:00:10;100538.22;;;6.56;98.15
23170;BME280;11753;43.144;24.714;2022-10-16T05:01:11;100535.69;;;6.55;98.59
23170;BME280;11753;43.144;24.714;2022-10-16T05:02:12;100536.75;;;6.52;98.61
23170;BME280;11753;43.144;24.714;2022-10-16T05:03:13;100540.09;;;6.54;98.90
23170;BME280;11753;43.144;24.714;2022-10-16T05:04:14;100540.09;;;6.54;98.90
23170;BME280;11753;43.144;24.714;2022-10-16T05:05:15;100540.00;;;6.56;98.93
23170;BME280;11753;43.144;24.714;2022-10-16T05:06:16;100543.47;;;6.44;99.13
23170;BME280;11753;43.144;24.714;2022-10-16T05:07:18;100537.59;;;6.40;99.75
23170;BME280;11753;43.144;24.714;2022-10-16T05:08:18;100543.88;;;6.50;99.69
23170;BME280;11753;43.144;24.714;2022-10-16T05:09:21;100545.22;;;6.56;99.21
23170;BME280;11753;43.144;24.714;2022-10-16T05:10:22;100543.66;;;6.53;99.39
23170;BME280;11753;43.144;24.714;2022-10-16T05:11:22;100548.47;;;6.59;99.35
23170;BME280;11753;43.144;24.714;2022-10-16T05:12:23;100547.53;;;6.60;99.40
23170;BME280;11753;43.144;24.714;2022-10-16T05:13:23;100549.31;;;6.60;99.50
23170;BME280;11753;43.144;24.714;2022-10-16T05:14:24;100553.50;;;6.62;99.58
23170;BME280;11753;43.144;24.714;2022-10-16T05:15:24;100551.41;;;6.68;99.44
23170;BME280;11753;43.144;24.714;2022-10-16T05:16:25;100551.69;;;6.76;99.29
23170;BME280;11753;43.144;24.714;2022-10-16T05:17:26;100559.13;;;6.82;99.02
23170;BME280;11753;43.144;24.714;2022-10-16T05:18:27;100556.22;;;6.86;98.80
23170;BME280;11753;43.144;24.714;2022-10-16T05:19:28;100563.53;;;6.94;98.48
23170;BME280;11753;43.144;24.714;2022-10-16T05:20:29;100556.63;;;6.93;98.56
23170;BME280;11753;43.144;24.714;2022-10-16T05:21:30;100557.63;;;7.03;97.97
23170;BME280;11753;43.144;24.714;2022-10-16T05:22:30;100556.16;;;6.99;97.67
23170;BME280;11753;43.144;24.714;2022-10-16T05:23:31;100563.72;;;7.04;97.63
23170;BME280;11753;43.144;24.714;2022-10-16T05:24:32;100567.88;;;7.06;97.35
23170;BME280;11753;43.144;24.714;2022-10-16T05:25:33;100563.88;;;7.13;97.11
23170;BME280;11753;43.144;24.714;2022-10-16T05:26:34;100567.25;;;7.15;96.78
23170;BME280;11753;43.144;24.714;2022-10-16T05:27:34;100574.88;;;7.18;96.68
23170;BME280;11753;43.144;24.714;2022-10-16T05:28:35;100572.25;;;7.18;96.57
23170;BME280;11753;43.144;24.714;2022-10-16T05:29:36;100576.34;;;7.23;96.16
23170;BME280;11753;43.144;24.714;2022-10-16T05:30:37;100580.22;;;7.30;95.91
23170;BME280;11753;43.144;24.714;2022-10-16T05:31:38;100574.53;;;7.36;95.77
23170;BME280;11753;43.144;24.714;2022-10-16T05:32:39;100572.66;;;7.38;95.58
23170;BME280;11753;43.144;24.714;2022-10-16T05:33:39;100581.00;;;7.43;95.40
23170;BME280;11753;43.144;24.714;2022-10-16T05:34:40;100583.16;;;7.49;95.08
23170;BME280;11753;43.144;24.714;2022-10-16T05:35:41;100582.69;;;7.44;94.52
23170;BME280;11753;43.144;24.714;2022-10-16T05:36:41;100574.59;;;7.47;94.74
23170;BME280;11753;43.144;24.714;2022-10-16T05:37:42;100581.06;;;7.54;94.62
23170;BME280;11753;43.144;24.714;2022-10-16T05:38:42;100577.28;;;7.58;94.32
23170;BME280;11753;43.144;24.714;2022-10-16T05:39:43;100575.38;;;7.60;93.98
23170;BME280;11753;43.144;24.714;2022-10-16T05:40:51;100577.78;;;7.63;94.21